بلغراد, جمهورية صربيا

03:31 AM CEST on أمتèبر 22, 2014 (GMT +0200)
Beograd-Karaburma | Change Station
CLOSE
Current Station
Personal Weather Stations
Location: Beograd-Karaburma, SRBIJA
Elevation: 355 ft
Nearby Weather Stations

Elev 355 ft 44.81 °N, 20.53 °E | Updated 16 seconds ago

Clear
صافية
60.3 °F
Feels Like 60.3 °F
N
6.0
ريح متغير ريح from SSE
Gusts 8.0 mph

هذا اليوم
High -- | Low -- °F
--% Chance of Precip.
Yesterday
High -- | Low -- °F
Precip. -- في
7:02 AM 5:42 PM
الهلال الأخير, 3% visible
الضغط 29.65 في
وضوح الرؤية 5.0 أميال
سحابات
نقطة الندى 57 °F
الرطوبة 90%
Rainfall 0.00 في
عمق الثلج Not available.
الأشعة فوق البنفسجية Not available.
Pollen Not available.
جودة الهواء Not available.
Flu Activity Not available.
METAR LYBE 220100Z 14005KT 8000 NSC 16/14 Q1004 NOSIG

More Conditions Fewer Conditions

الضغط 29.65 في
وضوح الرؤية 5.0 أميال
سحابات
نقطة الندى 57 °F
الرطوبة 90%
Rainfall 0.00 في
عمق الثلج Not available.
الأشعة فوق البنفسجية Not available.
Pollen Not available.
جودة الهواء Not available.
Flu Activity Not available.
METAR LYBE 220100Z 14005KT 8000 NSC 16/14 Q1004 NOSIG

More Conditions Fewer Conditions

10-Day Weather Forecast

Almanac

علم الفلك

Oct. 22, 2014 Rise Set
Actual Time 7:02 AM CEST 5:42 PM CEST
Civil Twilight 6:32 AM CEST 6:11 PM CEST
Nautical Twilight 5:58 AM CEST 6:46 PM CEST
Astronomical Twilight 5:24 AM CEST 7:19 PM CEST
قمر 5:22 AM CEST 5:01 PM CEST
Length Of Visible Light 11h 39m
طول الیوم
10h 39m
Tomorrow will be 2m 56s shorter.
الهلال الأخير, 3% of the Moon is Illuminated
Oct 21
الهلال الأخير
Oct 23
New
Oct 30
الربع الاول
Nov 6
بدر
Nov 14
الربع الآخر

Community

WunderPhotos

Upload Photos

1,763,844 photos uploaded!

Nearby

جودة الهواء

Not available.

عمق الثلج

Not available.

Earthquake Activity

City Distance Mag. Time & Date
No recent earthquake activity has been reported nearby.
Minimum magnitude displayed is 2.5.

Coastal Water Temperatures

مكان درجات الحرارة
No Stations Reporting

Nearby Weather Stations